Tuesday, October 17, 2017, 1:53 PM CDT
Back to Local

KLWC, Lawrence Municipal Airport

Location: Lawrence, KS, United States Lat: 39.017
Local Time: 1:53 PM CDT (18:53 GMT) Lon: -95.217
Time Zone: US/Central Elev: 833 ft

Show me the last for .
Show Decoded

2017-10-17 12:52 METAR KLWC 171752Z AUTO 17014G20KT 10SM CLR 21/07 A3015 RMK AO2 SLP208 T02110072
                 10211 20061 58022 =
2017-10-17 11:52 METAR KLWC 171652Z AUTO 18015G22KT 10SM CLR 19/07 A3018 RMK AO2 SLP218 T01940067
                 =
2017-10-17 10:52 METAR KLWC 171552Z AUTO 19014G19KT 10SM CLR 17/07 A3020 RMK AO2 SLP226 T01720067
                 =
2017-10-17 09:52 METAR KLWC 171452Z AUTO 17007KT 10SM CLR 15/07 A3022 RMK AO2 SLP232 T01500067
                 51002 =
2017-10-17 08:52 METAR KLWC 171352Z AUTO 11005KT 10SM CLR 11/07 A3022 RMK AO2 SLP233 T01060067 =
2017-10-17 07:52 METAR KLWC 171252Z AUTO 10006KT 10SM CLR 06/04 A3022 RMK AO2 SLP234 T00610044 =
2017-10-17 06:52 METAR KLWC 171152Z AUTO 08007KT 10SM CLR 08/05 A3021 RMK AO2 SLP230 T00830050
                 10117 20067 53002 =
2017-10-17 05:52 METAR KLWC 171052Z AUTO 10005KT 10SM CLR 08/06 A3020 RMK AO2 SLP226 T00780056 =
2017-10-17 04:52 METAR KLWC 170952Z AUTO 11005KT 10SM CLR 07/05 A3020 RMK AO2 SLP226 T00720050 =
2017-10-17 03:52 METAR KLWC 170852Z AUTO 12005KT 10SM CLR 08/06 A3020 RMK AO2 SLP226 T00830056
                 58007 =
2017-10-17 02:52 METAR KLWC 170752Z AUTO 13005KT 10SM CLR 10/06 A3022 RMK AO2 SLP231 T01000056 =
2017-10-17 01:52 METAR KLWC 170652Z AUTO 14006KT 10SM CLR 11/06 A3022 RMK AO2 SLP231 T01060056 =
2017-10-17 00:52 METAR KLWC 170552Z AUTO 09004KT 10SM CLR 09/06 A3022 RMK AO2 SLP233 T00890056
                 10156 20083 402110017 58009 =
2017-10-16 23:52 METAR KLWC 170452Z AUTO 15007KT 10SM CLR 11/06 A3023 RMK AO2 SLP236 T01060061 =
2017-10-16 22:52 METAR KLWC 170352Z AUTO 12004KT 10SM CLR 09/06 A3025 RMK AO2 SLP243 T00890056 =
2017-10-16 21:52 METAR KLWC 170252Z AUTO 14004KT 10SM CLR 10/06 A3025 RMK AO2 SLP245 T01000061
                 53006 =
2017-10-16 20:52 METAR KLWC 170152Z AUTO 13005KT 10SM CLR 11/07 A3024 RMK AO2 SLP244 T01060067 =
2017-10-16 19:52 METAR KLWC 170052Z AUTO 13005KT 10SM CLR 11/06 A3024 RMK AO2 SLP241 T01110061 =
2017-10-16 18:52 METAR KLWC 162352Z AUTO 16006KT 10SM CLR 16/06 A3023 RMK AO2 SLP239 T01560061
                 10211 20156 56010 =
2017-10-16 17:52 METAR KLWC 162252Z AUTO 18009KT 10SM CLR 19/05 A3024 RMK AO2 SLP239 T01940050 =
2017-10-16 16:52 METAR KLWC 162152Z AUTO 18011KT 10SM CLR 21/04 A3025 RMK AO2 SLP243 T02060044 =
2017-10-16 15:52 METAR KLWC 162052Z AUTO 17007G15KT 10SM CLR 21/05 A3026 RMK AO2 SLP248 T02110050
                 56034 =
2017-10-16 14:52 METAR KLWC 161952Z AUTO 19010KT 10SM CLR 21/05 A3029 RMK AO2 SLP256 T02060050 =

Support USWX by starting your Amazon purchase here.